LFOHEGUW

Guest
Details From LFOH - Le Havre-Octeville
To EGUW - RAF Wattisham
Flight Number -
Tags generated
Created
Modified
Stats Distance 159 nm / 295 km
Max Altitude 19,200 ft / 5,852 m
Waypoints 3
Social Downloads 1
Likes 0
Share VATSIM

Download

Looking for another format? Having issues loading an existing format? Contact us
Advertisement - Login to hide

Notes

Basic altitude profile: - Ascent Rate: 2500ft/min - Ascent Speed: 250kts - Cruise Altitude: 35000ft - Cruise Speed: 420kts - Descent Rate: 1500ft/min - Descent Speed: 250kts Options: - Use NATs: yes - Use PACOTS: yes - Use low airways: yes - Use high airways: yes

Route

LFOH LYD26 EGUW

ID Type Via Altitude Latitude Longitude Leg Dist Tot Dist Heading (true) Name
O LFOH APT - 0 ft / 0 m 49.53408˚ 0.08846˚ - 0 nm - Le Havre-Octeville
LYD26 FIX - 19,200 ft / 5,852 m 50.66667˚ 0.45556˚ 69 nm 69 nm 12° / 12° -
O EGUW APT - 0 ft / 0 m 52.12702˚ 0.95543˚ 89 nm 159 nm 12° / 12° RAF Wattisham

Altitude Profile

Advertisement - Login to hide

LFOH

Details ICAO LFOH (LEH)
Name Le Havre-Octeville
Region France
Timezone Europe/Paris (UTC+1.0)
Stats Elevation 311 ft / 95 m (AMSL)
Location 49.534079° 0.088457°
Runways 1
Magnetic Variation 0.178° W

METAR

LFOH 142100Z AUTO 20012KT 9999 FEW033 SCT066 BKN078 05/03 Q0992

Decode

TAF

TAF TAF LFOH 141905Z 1419/1512 CNL

Decode

Departure Runways

ID Width Length Bearing (true) Bearing (mag) Surface Threshold Offset Overrun Length
04 131 ft / 40 m 7,553 ft / 2,302 m 43.07° 43.25° Asphalt 0 ft / 0 m 0 ft / 0 m
22 131 ft / 40 m 7,553 ft / 2,302 m 223.08° 223.26° Asphalt 0 ft / 0 m 0 ft / 0 m

EGUW

Details ICAO EGUW
Name RAF Wattisham
Region United Kingdom
Timezone Europe/London (UTC+0.0)
Stats Elevation 284 ft / 87 m (AMSL)
Location 52.127024° 0.955428°
Runways 1
Magnetic Variation 0.137° W

METAR

EGUW 142050Z 23008KT 9999 FEW040 01/M00 Q0987 BLU

Decode

TAF

Not found

Destination Runways

ID Width Length Bearing (true) Bearing (mag) Surface Threshold Offset Overrun Length
05 151 ft / 46 m 7,922 ft / 2,415 m 47.82° 47.96° Asphalt 449 ft / 137 m 233 ft / 71 m
23 151 ft / 46 m 7,922 ft / 2,415 m 227.84° 227.98° Asphalt 0 ft / 0 m 610 ft / 186 m

Approach Navaids

Runway Type Ident Frequency Range Bearing (true) Bearing (mag) Slope Elevation
23 Localiser WT 111.10 MHz 18 nm / 33 km 232.51° 232.64° - 284 ft / 87 m (AMSL)
23 Glidescope WT 111.10 MHz 10 nm / 19 km 227.83° 227.96° 3.00° 284 ft / 87 m (AMSL)